Time;durP1;ratioP1;P1;durP2;ratioP2;P2;SDS_P1;SDS_P2;PMS_P1;PMS_P2;Temp;Humidity;BMP_temperature;BMP_pressure;BME280_temperature;BME280_humidity;BME280_pressure;Samples;Min_cycle;Max_cycle;Signal;HPM_P1;HPM_P2
2022/02/03 00:02:02;;;;;;;18.73;8.25;;;;;;;;;;6227944;28;20136;-63
2022/02/03 00:05:09;;;;;;;14.95;7.25;;;;;;;;;;6218993;28;20047;-63
2022/02/03 00:08:19;;;;;;;21.13;10.88;;;;;;;;;;6223318;28;20057;-63
2022/02/03 00:11:40;;;;;;;8.05;3.65;;;;;;;;;;6213619;28;20053;-63
2022/02/03 00:25:02;;;;;;;3.63;2.35;;;;;;;;;;6220480;28;20042;-62
2022/02/03 00:28:11;;;;;;;4.75;2.47;;;;;;;;;;6222306;28;20046;-62
2022/02/03 00:31:32;;;;;;;2.92;1.92;;;;;;;;;;6219825;28;20087;-63
2022/02/03 00:34:45;;;;;;;4.03;2.13;;;;;;;;;;6215868;28;20101;-62
2022/02/03 00:38:02;;;;;;;5.47;2.78;;;;;;;;;;6217296;28;20105;-62
2022/02/03 00:51:13;;;;;;;4.35;2.40;;;;;;;;;;6220205;28;20053;-62
2022/02/03 00:54:15;;;;;;;4.28;2.58;;;;;;;;;;6219894;28;20089;-62
2022/02/03 00:57:20;;;;;;;5.47;3.00;;;;;;;;;;6219261;28;20052;-62
2022/02/03 01:00:23;;;;;;;3.22;2.60;;;;;;;;;;6218885;28;20096;-62
2022/02/03 01:03:27;;;;;;;4.32;2.70;;;;;;;;;;6219278;28;20078;-62
2022/02/03 01:06:30;;;;;;;6.47;3.20;;;;;;;;;;6219986;28;20491;-62
2022/02/03 01:09:36;;;;;;;7.53;3.30;;;;;;;;;;6220789;28;20053;-63
2022/02/03 01:12:47;;;;;;;6.47;3.55;;;;;;;;;;6219863;28;20057;-62
2022/02/03 01:15:58;;;;;;;4.72;2.90;;;;;;;;;;6217611;28;20048;-62
2022/02/03 01:45:47;;;;;;;8.63;4.30;;;;;;;;;;6220328;28;20054;-63
2022/02/03 01:49:05;;;;;;;7.57;4.20;;;;;;;;;;6220068;28;20050;-63
2022/02/03 01:52:10;;;;;;;7.40;4.30;;;;;;;;;;6219780;28;20042;-63
2022/02/03 01:55:13;;;;;;;6.25;4.45;;;;;;;;;;6219572;28;20400;-62
2022/02/03 01:58:23;;;;;;;8.65;4.30;;;;;;;;;;6220953;28;20211;-63
2022/02/03 02:01:26;;;;;;;6.68;4.60;;;;;;;;;;6215651;28;20585;-61
2022/02/03 02:04:53;;;;;;;6.22;4.80;;;;;;;;;;6229708;28;20091;-63
2022/02/03 02:07:58;;;;;;;10.32;5.75;;;;;;;;;;6222167;28;20075;-62
2022/02/03 02:11:16;;;;;;;8.85;5.20;;;;;;;;;;6219744;28;20042;-62
2022/02/03 02:18:19;;;;;;;8.20;5.30;;;;;;;;;;6147453;28;20058;-63
2022/02/03 02:38:53;;;;;;;7.88;5.18;;;;;;;;;;6227345;28;20133;-62
2022/02/03 02:45:41;;;;;;;8.75;5.57;;;;;;;;;;6163575;28;20057;-62
2022/02/03 02:49:00;;;;;;;8.25;5.28;;;;;;;;;;6219575;28;20078;-62
2022/02/03 02:52:08;;;;;;;10.80;5.38;;;;;;;;;;6220245;28;20105;-62
2022/02/03 02:55:22;;;;;;;8.02;5.78;;;;;;;;;;6214181;28;20038;-63
2022/02/03 02:58:49;;;;;;;6.68;5.05;;;;;;;;;;6229266;28;20046;-62
2022/02/03 03:02:24;;;;;;;8.20;5.72;;;;;;;;;;6222344;28;20563;-62
2022/02/03 03:32:39;;;;;;;10.57;6.13;;;;;;;;;;6160840;28;20050;-62
2022/02/03 03:35:46;;;;;;;7.15;5.32;;;;;;;;;;6158906;28;20229;-64
2022/02/03 03:38:49;;;;;;;9.38;5.63;;;;;;;;;;6226190;28;20057;-63
2022/02/03 03:41:51;;;;;;;14.23;5.75;;;;;;;;;;6222216;28;20165;-62
2022/02/03 03:44:55;;;;;;;12.10;6.32;;;;;;;;;;6225875;28;20331;-63
2022/02/03 03:48:01;;;;;;;10.27;5.28;;;;;;;;;;6227506;28;20053;-63
2022/02/03 03:51:05;;;;;;;10.02;5.55;;;;;;;;;;6227075;28;20050;-62
2022/02/03 03:54:12;;;;;;;9.35;5.53;;;;;;;;;;6218027;28;20054;-62
2022/02/03 03:57:32;;;;;;;15.10;5.00;;;;;;;;;;6222620;28;20050;-63
2022/02/03 04:00:53;;;;;;;9.30;5.03;;;;;;;;;;6221967;28;20045;-62
2022/02/03 05:02:35;;;;;;;5.95;4.05;;;;;;;;;;6219520;28;20097;-62
2022/02/03 05:05:55;;;;;;;6.80;3.92;;;;;;;;;;6221054;28;20048;-62
2022/02/03 05:09:17;;;;;;;9.02;4.53;;;;;;;;;;6221918;28;20042;-62
2022/02/03 05:12:36;;;;;;;7.38;4.05;;;;;;;;;;6223132;28;20049;-62
2022/02/03 05:16:10;;;;;;;7.15;4.43;;;;;;;;;;6219431;28;20129;-62
2022/02/03 05:19:50;;;;;;;9.13;3.97;;;;;;;;;;6215007;28;20052;-62
2022/02/03 05:26:56;;;;;;;6.95;4.28;;;;;;;;;;6215154;28;20046;-62
2022/02/03 05:44:20;;;;;;;7.13;3.40;;;;;;;;;;6210208;28;20050;-62
2022/02/03 05:47:49;;;;;;;6.60;4.00;;;;;;;;;;6216410;28;20057;-62
2022/02/03 05:51:11;;;;;;;5.18;3.38;;;;;;;;;;6216260;28;20200;-62
2022/02/03 06:04:33;;;;;;;9.02;4.40;;;;;;;;;;6166225;28;20484;-63
2022/02/03 06:14:15;;;;;;;5.30;3.95;;;;;;;;;;6215907;28;20045;-62
2022/02/03 06:17:30;;;;;;;9.40;4.45;;;;;;;;;;6214088;28;20406;-62
2022/02/03 06:20:56;;;;;;;8.52;4.50;;;;;;;;;;6209738;28;20051;-63
2022/02/03 06:24:02;;;;;;;6.57;4.22;;;;;;;;;;6209597;28;20107;-63
2022/02/03 06:30:23;;;;;;;7.68;4.47;;;;;;;;;;6210867;28;20054;-62
2022/02/03 06:33:25;;;;;;;8.43;5.15;;;;;;;;;;6219279;28;20050;-61
2022/02/03 06:36:28;;;;;;;7.45;4.43;;;;;;;;;;6218884;28;20098;-62
2022/02/03 06:39:30;;;;;;;8.10;4.90;;;;;;;;;;6218054;28;20077;-63
2022/02/03 06:42:32;;;;;;;7.90;4.93;;;;;;;;;;6216584;28;20090;-62
2022/02/03 06:45:39;;;;;;;9.48;4.85;;;;;;;;;;6222295;28;20128;-62
2022/02/03 06:48:46;;;;;;;6.88;4.80;;;;;;;;;;6224650;28;20095;-62
2022/02/03 06:51:57;;;;;;;15.15;5.28;;;;;;;;;;6222403;28;20041;-62
2022/02/03 06:55:07;;;;;;;13.23;5.65;;;;;;;;;;6223607;28;20049;-61
2022/02/03 06:58:14;;;;;;;9.98;5.05;;;;;;;;;;6221552;28;20453;-62
2022/02/03 07:01:20;;;;;;;7.97;5.28;;;;;;;;;;6214418;28;20446;-61
2022/02/03 07:04:25;;;;;;;11.05;4.70;;;;;;;;;;6219751;28;20541;-61
2022/02/03 07:07:28;;;;;;;8.15;4.90;;;;;;;;;;6216422;28;20058;-62
2022/02/03 07:10:29;;;;;;;10.15;5.63;;;;;;;;;;6218997;28;20817;-62
2022/02/03 07:13:33;;;;;;;8.55;5.13;;;;;;;;;;6230629;28;20081;-61
2022/02/03 07:16:43;;;;;;;12.35;5.90;;;;;;;;;;6232905;28;20056;-61
2022/02/03 07:19:47;;;;;;;7.28;5.18;;;;;;;;;;6216646;28;20560;-61
2022/02/03 07:22:50;;;;;;;10.27;5.53;;;;;;;;;;6220359;28;20368;-61
2022/02/03 07:25:52;;;;;;;9.95;5.32;;;;;;;;;;6222232;28;20101;-61
2022/02/03 07:28:54;;;;;;;8.70;5.32;;;;;;;;;;6224308;28;20124;-61
2022/02/03 07:31:55;;;;;;;9.38;5.68;;;;;;;;;;6220845;28;20101;-60
2022/02/03 07:34:57;;;;;;;7.70;5.57;;;;;;;;;;6223468;28;20097;-62
2022/02/03 07:38:02;;;;;;;9.85;5.43;;;;;;;;;;6221883;28;20061;-62
2022/02/03 07:41:04;;;;;;;9.07;5.45;;;;;;;;;;6219583;28;20070;-62
2022/02/03 07:44:06;;;;;;;9.48;5.90;;;;;;;;;;6224121;28;20128;-60
2022/02/03 07:47:08;;;;;;;12.50;6.22;;;;;;;;;;6225000;28;20254;-61
2022/02/03 07:50:10;;;;;;;11.60;7.00;;;;;;;;;;6224024;28;20151;-59
2022/02/03 07:53:13;;;;;;;11.25;5.75;;;;;;;;;;6223936;28;20091;-62
2022/02/03 07:56:14;;;;;;;9.70;6.35;;;;;;;;;;6223327;28;20565;-61
2022/02/03 07:59:16;;;;;;;11.07;6.90;;;;;;;;;;6218927;28;20147;-61
2022/02/03 08:02:18;;;;;;;10.60;7.43;;;;;;;;;;6221447;28;20725;-61
2022/02/03 08:05:21;;;;;;;9.27;6.70;;;;;;;;;;6219176;28;20137;-64
2022/02/03 08:08:29;;;;;;;12.02;8.48;;;;;;;;;;6217169;28;20153;-63
2022/02/03 08:11:35;;;;;;;17.08;8.07;;;;;;;;;;6227265;28;20363;-60
2022/02/03 08:14:41;;;;;;;15.10;9.18;;;;;;;;;;6223365;28;20050;-63
2022/02/03 08:17:43;;;;;;;15.05;10.45;;;;;;;;;;6226351;28;20088;-61
2022/02/03 08:20:51;;;;;;;16.60;10.70;;;;;;;;;;6222517;28;20494;-64
2022/02/03 08:24:19;;;;;;;17.98;10.50;;;;;;;;;;6220294;28;20081;-62
2022/02/03 08:30:46;;;;;;;20.15;12.10;;;;;;;;;;6221008;28;20478;-61
2022/02/03 08:33:50;;;;;;;18.70;11.30;;;;;;;;;;6222008;28;20053;-62
2022/02/03 08:36:52;;;;;;;22.55;12.02;;;;;;;;;;6218752;28;20046;-63
2022/02/03 08:39:57;;;;;;;19.98;12.30;;;;;;;;;;6222957;28;20070;-61
2022/02/03 08:42:59;;;;;;;18.10;12.18;;;;;;;;;;6227110;28;20133;-62
2022/02/03 08:46:02;;;;;;;24.85;13.55;;;;;;;;;;6219132;28;20125;-61
2022/02/03 08:49:06;;;;;;;18.97;12.57;;;;;;;;;;6226026;28;20058;-60
2022/02/03 08:52:16;;;;;;;21.48;12.32;;;;;;;;;;6220685;28;20048;-62
2022/02/03 08:55:27;;;;;;;25.13;14.30;;;;;;;;;;6220534;28;20071;-61
2022/02/03 08:59:02;;;;;;;25.02;14.18;;;;;;;;;;6217350;28;20478;-62
2022/02/03 09:36:05;;;;;;;24.13;14.88;;;;;;;;;;6218073;28;20042;-63
2022/02/03 09:39:14;;;;;;;22.63;14.95;;;;;;;;;;6219243;28;20451;-61
2022/02/03 09:52:54;;;;;;;21.50;14.40;;;;;;;;;;6217952;28;20045;-63
2022/02/03 09:56:22;;;;;;;21.90;14.05;;;;;;;;;;6212537;28;20035;-62
2022/02/03 09:59:33;;;;;;;22.88;14.98;;;;;;;;;;6215141;28;20050;-62
2022/02/03 10:02:40;;;;;;;22.40;14.48;;;;;;;;;;6215885;28;20056;-64
2022/02/03 10:06:05;;;;;;;23.50;15.27;;;;;;;;;;6220552;28;20129;-64
2022/02/03 10:09:07;;;;;;;21.45;14.70;;;;;;;;;;6227273;28;20254;-62
2022/02/03 10:12:10;;;;;;;27.23;15.13;;;;;;;;;;6220603;28;20502;-64
2022/02/03 10:15:12;;;;;;;21.80;14.90;;;;;;;;;;6218656;28;20188;-65
2022/02/03 10:18:25;;;;;;;25.58;14.63;;;;;;;;;;6218096;28;20104;-64
2022/02/03 10:21:27;;;;;;;23.42;13.93;;;;;;;;;;6217769;28;20402;-63
2022/02/03 10:24:34;;;;;;;22.67;14.35;;;;;;;;;;6220692;28;20062;-64
2022/02/03 10:27:38;;;;;;;25.50;14.50;;;;;;;;;;6217088;28;20056;-64
2022/02/03 10:30:46;;;;;;;22.30;14.20;;;;;;;;;;6220599;28;20069;-64
2022/02/03 10:33:53;;;;;;;26.73;15.93;;;;;;;;;;6222410;28;20054;-63
2022/02/03 10:37:03;;;;;;;25.50;13.40;;;;;;;;;;6220262;28;20042;-64
2022/02/03 10:40:28;;;;;;;21.00;14.80;;;;;;;;;;6222080;28;20062;-64
2022/02/03 10:43:50;;;;;;;21.42;13.80;;;;;;;;;;6219689;28;20053;-64
2022/02/03 10:47:21;;;;;;;22.17;13.73;;;;;;;;;;6224077;28;20566;-64
2022/02/03 10:50:50;;;;;;;20.98;14.27;;;;;;;;;;6220915;28;20046;-64
2022/02/03 10:54:16;;;;;;;17.88;12.45;;;;;;;;;;6226148;28;20393;-64
2022/02/03 10:57:57;;;;;;;19.95;13.07;;;;;;;;;;6223126;28;20231;-63
2022/02/03 11:04:47;;;;;;;20.25;13.25;;;;;;;;;;6203152;28;20060;-64
2022/02/03 11:07:55;;;;;;;22.08;13.27;;;;;;;;;;6226154;28;20042;-63
2022/02/03 11:10:59;;;;;;;23.65;13.00;;;;;;;;;;6221330;28;20049;-61
2022/02/03 11:14:02;;;;;;;19.52;12.88;;;;;;;;;;6229772;28;20053;-63
2022/02/03 11:17:04;;;;;;;18.38;12.27;;;;;;;;;;6220215;28;20049;-64
2022/02/03 11:20:08;;;;;;;19.48;13.23;;;;;;;;;;6216735;28;20200;-64
2022/02/03 11:23:22;;;;;;;16.75;12.43;;;;;;;;;;6212460;28;20055;-63
2022/02/03 11:26:30;;;;;;;19.00;12.88;;;;;;;;;;6218605;28;20503;-63
2022/02/03 11:33:40;;;;;;;20.13;12.63;;;;;;;;;;6196871;28;20068;-63
2022/02/03 11:47:40;;;;;;;16.23;12.10;;;;;;;;;;6207524;28;20053;-63
2022/02/03 11:51:04;;;;;;;17.27;12.35;;;;;;;;;;6197765;28;20049;-64
2022/02/03 11:54:45;;;;;;;22.40;12.65;;;;;;;;;;6224648;28;20467;-63
2022/02/03 11:58:24;;;;;;;18.60;13.27;;;;;;;;;;6216843;28;20348;-64
2022/02/03 12:01:55;;;;;;;22.08;13.50;;;;;;;;;;6210778;28;20073;-62
2022/02/03 12:05:13;;;;;;;17.52;12.20;;;;;;;;;;6229690;28;20054;-65
2022/02/03 12:12:29;;;;;;;19.77;12.70;;;;;;;;;;6227857;28;20485;-64
2022/02/03 12:15:50;;;;;;;17.13;12.40;;;;;;;;;;6220031;28;20056;-63
2022/02/03 12:22:37;;;;;;;18.08;12.73;;;;;;;;;;6223756;28;20057;-62
2022/02/03 12:25:54;;;;;;;16.73;12.45;;;;;;;;;;6221415;28;20084;-64
2022/02/03 12:28:59;;;;;;;20.15;12.30;;;;;;;;;;6214444;28;20042;-63
2022/02/03 12:32:13;;;;;;;17.38;13.05;;;;;;;;;;6220486;28;20101;-64
2022/02/03 12:38:36;;;;;;;20.23;12.55;;;;;;;;;;6219699;28;20085;-64
2022/02/03 12:41:40;;;;;;;76.40;42.70;;;;;;;;;;6223822;28;20050;-64
2022/02/03 12:44:41;;;;;;;25.65;18.42;;;;;;;;;;6216484;28;20490;-63
2022/02/03 12:47:47;;;;;;;44.85;22.38;;;;;;;;;;6223866;28;20046;-63
2022/02/03 12:50:48;;;;;;;35.10;20.40;;;;;;;;;;6220757;28;20046;-63
2022/02/03 12:53:50;;;;;;;25.63;16.70;;;;;;;;;;6227805;28;20131;-63
2022/02/03 12:57:00;;;;;;;26.92;14.95;;;;;;;;;;6220361;28;20131;-62
2022/02/03 13:00:11;;;;;;;20.63;12.80;;;;;;;;;;6221106;28;20096;-64
2022/02/03 13:03:17;;;;;;;21.20;12.20;;;;;;;;;;6219314;28;20054;-63
2022/02/03 13:06:21;;;;;;;16.73;10.68;;;;;;;;;;6224395;28;20505;-64
2022/02/03 13:09:26;;;;;;;16.10;11.02;;;;;;;;;;6211811;28;20046;-63
2022/02/03 13:12:34;;;;;;;15.23;10.00;;;;;;;;;;6217565;28;20072;-63
2022/02/03 13:15:40;;;;;;;15.35;10.68;;;;;;;;;;6219537;28;20041;-63
2022/02/03 13:18:49;;;;;;;16.25;10.52;;;;;;;;;;6211477;28;20410;-63
2022/02/03 13:22:04;;;;;;;18.67;11.60;;;;;;;;;;6220033;28;20054;-63
2022/02/03 13:25:14;;;;;;;17.55;11.38;;;;;;;;;;6219942;28;20069;-63
2022/02/03 13:28:19;;;;;;;16.95;11.43;;;;;;;;;;6215542;28;20267;-63
2022/02/03 13:31:32;;;;;;;17.77;11.50;;;;;;;;;;6221221;28;20113;-64
2022/02/03 13:34:41;;;;;;;19.33;11.55;;;;;;;;;;6219041;28;20045;-64
2022/02/03 13:37:50;;;;;;;19.67;12.40;;;;;;;;;;6215675;28;20046;-63
2022/02/03 13:41:10;;;;;;;20.73;11.32;;;;;;;;;;6214499;28;20050;-63
2022/02/03 13:44:16;;;;;;;23.80;11.48;;;;;;;;;;6220459;28;20066;-64
2022/02/03 13:47:21;;;;;;;19.67;13.05;;;;;;;;;;6218741;28;20494;-63
2022/02/03 13:50:27;;;;;;;20.05;12.32;;;;;;;;;;6217378;28;20092;-63
2022/02/03 13:53:36;;;;;;;17.40;12.77;;;;;;;;;;6219715;28;20071;-63
2022/02/03 14:27:10;;;;;;;19.52;12.73;;;;;;;;;;6213840;28;20054;-63
2022/02/03 14:30:17;;;;;;;20.88;12.55;;;;;;;;;;6215566;28;20054;-65
2022/02/03 14:33:26;;;;;;;18.77;13.18;;;;;;;;;;6214428;28;20129;-64
2022/02/03 14:36:31;;;;;;;17.40;12.05;;;;;;;;;;6215762;28;20415;-64
2022/02/03 14:39:49;;;;;;;20.02;12.60;;;;;;;;;;6216222;28;20149;-64
2022/02/03 14:42:51;;;;;;;16.48;12.18;;;;;;;;;;6215458;28;20072;-65
2022/02/03 14:45:54;;;;;;;17.83;11.93;;;;;;;;;;6219925;28;20116;-64
2022/02/03 14:48:56;;;;;;;17.02;12.82;;;;;;;;;;6217464;28;20122;-64
2022/02/03 14:52:11;;;;;;;16.25;11.77;;;;;;;;;;6220191;28;20182;-64
2022/02/03 14:58:34;;;;;;;17.90;12.38;;;;;;;;;;6229712;28;20062;-65
2022/02/03 15:01:35;;;;;;;14.35;11.65;;;;;;;;;;6219624;28;20054;-64
2022/02/03 15:04:40;;;;;;;16.38;11.45;;;;;;;;;;6220288;28;20137;-63
2022/02/03 15:07:43;;;;;;;16.77;12.05;;;;;;;;;;6218809;28;20081;-63
2022/02/03 15:10:52;;;;;;;14.97;11.23;;;;;;;;;;6219207;28;20046;-63
2022/02/03 15:13:53;;;;;;;16.00;10.85;;;;;;;;;;6218843;28;20077;-63
2022/02/03 15:16:55;;;;;;;18.65;12.75;;;;;;;;;;6217093;28;20045;-62
2022/02/03 15:19:57;;;;;;;17.92;11.95;;;;;;;;;;6227601;28;20133;-63
2022/02/03 15:23:00;;;;;;;15.88;11.68;;;;;;;;;;6223528;28;20049;-63
2022/02/03 15:26:04;;;;;;;17.20;12.35;;;;;;;;;;6218594;28;20390;-63
2022/02/03 15:29:05;;;;;;;16.17;11.55;;;;;;;;;;6221740;28;20061;-63
2022/02/03 15:32:08;;;;;;;15.55;11.48;;;;;;;;;;6225726;28;20148;-63
2022/02/03 15:35:19;;;;;;;15.88;12.02;;;;;;;;;;6225640;28;20516;-63
2022/02/03 15:38:22;;;;;;;16.05;11.23;;;;;;;;;;6226691;28;20064;-63
2022/02/03 15:41:27;;;;;;;17.63;10.98;;;;;;;;;;6221063;28;20489;-64
2022/02/03 15:44:36;;;;;;;14.98;10.73;;;;;;;;;;6206818;28;20391;-63
2022/02/03 15:47:42;;;;;;;14.63;11.05;;;;;;;;;;6212625;28;20038;-63
2022/02/03 15:51:02;;;;;;;13.13;10.57;;;;;;;;;;6205245;28;20049;-63
2022/02/03 15:57:59;;;;;;;17.48;10.35;;;;;;;;;;6227058;28;20446;-63
2022/02/03 16:01:17;;;;;;;16.95;11.32;;;;;;;;;;6228971;28;20354;-64
2022/02/03 16:17:52;;;;;;;14.77;9.88;;;;;;;;;;6220919;28;20245;-63
2022/02/03 16:20:59;;;;;;;19.53;10.27;;;;;;;;;;6230474;28;20041;-63
2022/02/03 16:24:20;;;;;;;18.73;10.35;;;;;;;;;;6221758;28;20562;-63
2022/02/03 16:41:07;;;;;;;15.40;10.02;;;;;;;;;;6232588;28;20472;-63
2022/02/03 16:51:03;;;;;;;15.48;10.38;;;;;;;;;;6222606;28;20058;-63
2022/02/03 16:54:10;;;;;;;16.30;10.63;;;;;;;;;;6219152;28;20058;-63
2022/02/03 16:57:15;;;;;;;17.60;9.88;;;;;;;;;;6220259;28;20058;-63
2022/02/03 17:00:18;;;;;;;15.27;9.55;;;;;;;;;;6224097;28;20045;-63
2022/02/03 17:03:21;;;;;;;18.58;10.10;;;;;;;;;;6230630;28;20043;-63
2022/02/03 17:06:23;;;;;;;13.45;9.50;;;;;;;;;;6228087;28;20076;-63
2022/02/03 17:09:24;;;;;;;15.70;9.88;;;;;;;;;;6228005;28;20096;-63
2022/02/03 17:12:26;;;;;;;16.80;9.13;;;;;;;;;;6221574;28;20176;-63
2022/02/03 17:15:28;;;;;;;16.88;9.80;;;;;;;;;;6217980;28;20139;-63
2022/02/03 17:18:31;;;;;;;15.52;9.30;;;;;;;;;;6224136;28;20120;-63
2022/02/03 17:21:32;;;;;;;16.55;9.52;;;;;;;;;;6226449;28;20207;-63
2022/02/03 17:24:36;;;;;;;15.93;9.40;;;;;;;;;;6222302;28;20064;-63
2022/02/03 17:27:43;;;;;;;15.60;9.05;;;;;;;;;;6226992;28;20406;-63
2022/02/03 17:30:50;;;;;;;14.43;9.50;;;;;;;;;;6221877;28;20521;-63
2022/02/03 18:07:55;;;;;;;15.48;8.93;;;;;;;;;;6223073;28;20073;-63
2022/02/03 18:11:07;;;;;;;12.93;9.00;;;;;;;;;;6220575;28;20046;-63
2022/02/03 18:17:49;;;;;;;15.20;9.18;;;;;;;;;;6220551;28;20083;-63
2022/02/03 18:31:06;;;;;;;17.65;9.45;;;;;;;;;;6223112;28;20053;-63
2022/02/03 18:37:43;;;;;;;14.15;9.38;;;;;;;;;;6224597;28;20046;-62
2022/02/03 18:50:51;;;;;;;16.85;10.80;;;;;;;;;;6220613;28;20129;-62
2022/02/03 18:54:11;;;;;;;17.42;10.10;;;;;;;;;;6223207;28;20529;-63
2022/02/03 18:57:27;;;;;;;15.65;9.85;;;;;;;;;;6220006;28;20039;-63
2022/02/03 19:24:18;;;;;;;18.85;9.65;;;;;;;;;;6211633;28;20046;-63
2022/02/03 19:27:38;;;;;;;16.92;9.90;;;;;;;;;;6208159;28;20130;-64
2022/02/03 20:07:34;;;;;;;16.38;10.23;;;;;;;;;;6227348;28;20042;-64
2022/02/03 20:10:39;;;;;;;15.70;10.05;;;;;;;;;;6219545;28;20081;-64
2022/02/03 20:13:40;;;;;;;19.67;9.98;;;;;;;;;;6221640;28;20050;-63
2022/02/03 20:16:43;;;;;;;17.20;10.90;;;;;;;;;;6221602;28;20057;-64
2022/02/03 20:19:47;;;;;;;16.80;10.60;;;;;;;;;;6215108;28;20121;-64
2022/02/03 20:22:50;;;;;;;16.77;10.17;;;;;;;;;;6218952;28;20053;-64
2022/02/03 20:25:56;;;;;;;18.10;10.77;;;;;;;;;;6230806;28;20050;-64
2022/02/03 20:28:58;;;;;;;21.40;10.85;;;;;;;;;;6218522;28;20120;-64
2022/02/03 20:32:00;;;;;;;20.35;10.05;;;;;;;;;;6218278;28;20046;-65
2022/02/03 20:35:04;;;;;;;21.05;10.30;;;;;;;;;;6219902;28;20554;-64
2022/02/03 20:38:06;;;;;;;19.63;10.60;;;;;;;;;;6217558;28;20119;-64
2022/02/03 20:41:07;;;;;;;17.55;10.50;;;;;;;;;;6228789;28;20454;-64
2022/02/03 20:44:09;;;;;;;15.57;9.40;;;;;;;;;;6217053;28;20513;-63
2022/02/03 20:47:10;;;;;;;20.48;10.32;;;;;;;;;;6220335;28;20461;-63
2022/02/03 20:50:17;;;;;;;16.17;10.13;;;;;;;;;;6214071;28;20085;-64
2022/02/03 20:53:18;;;;;;;17.38;9.30;;;;;;;;;;6219395;28;20046;-63
2022/02/03 20:56:21;;;;;;;20.38;9.95;;;;;;;;;;6224960;28;20391;-64
2022/02/03 20:59:27;;;;;;;19.02;8.73;;;;;;;;;;6219408;28;20042;-64
2022/02/03 21:02:38;;;;;;;14.68;9.85;;;;;;;;;;6227765;28;20096;-64
2022/02/03 21:05:43;;;;;;;14.32;8.20;;;;;;;;;;6225010;28;20042;-64
2022/02/03 21:08:47;;;;;;;17.58;8.48;;;;;;;;;;6217825;28;20042;-64
2022/02/03 21:11:49;;;;;;;12.75;7.75;;;;;;;;;;6228706;28;20049;-64
2022/02/03 21:14:54;;;;;;;17.15;7.95;;;;;;;;;;6220283;28;20096;-64
2022/02/03 21:17:57;;;;;;;16.13;7.85;;;;;;;;;;6223255;28;20045;-65
2022/02/03 21:21:00;;;;;;;15.18;7.60;;;;;;;;;;6218406;28;20562;-63
2022/02/03 21:24:01;;;;;;;16.05;8.82;;;;;;;;;;6225880;28;20143;-64
2022/02/03 21:27:04;;;;;;;17.90;8.50;;;;;;;;;;6227259;28;20085;-64
2022/02/03 21:30:08;;;;;;;21.65;7.95;;;;;;;;;;6225877;28;20521;-63
2022/02/03 21:33:13;;;;;;;17.00;8.60;;;;;;;;;;6213572;28;20137;-63
2022/02/03 21:36:17;;;;;;;18.65;8.60;;;;;;;;;;6220232;28;20054;-64
2022/02/03 21:39:19;;;;;;;11.18;7.00;;;;;;;;;;6225958;28;20053;-63
2022/02/03 21:42:20;;;;;;;13.80;7.60;;;;;;;;;;6219563;28;20151;-63
2022/02/03 21:45:23;;;;;;;12.85;7.00;;;;;;;;;;6220674;28;20128;-63
2022/02/03 21:48:24;;;;;;;16.65;6.90;;;;;;;;;;6221616;28;20155;-63
2022/02/03 21:51:28;;;;;;;16.20;7.70;;;;;;;;;;6222149;28;20127;-63
2022/02/03 21:54:33;;;;;;;14.35;6.95;;;;;;;;;;6220808;28;20517;-63
2022/02/03 21:57:39;;;;;;;15.32;6.20;;;;;;;;;;6218474;28;20052;-64
2022/02/03 22:00:42;;;;;;;17.42;6.57;;;;;;;;;;6228261;28;20488;-63
2022/02/03 22:03:43;;;;;;;14.32;6.18;;;;;;;;;;6222787;28;20072;-62
2022/02/03 22:06:46;;;;;;;12.38;6.60;;;;;;;;;;6224972;28;20808;-63
2022/02/03 22:09:48;;;;;;;16.33;6.25;;;;;;;;;;6223705;28;20045;-64
2022/02/03 22:12:50;;;;;;;10.75;6.28;;;;;;;;;;6222246;28;20384;-64
2022/02/03 22:15:52;;;;;;;13.82;6.43;;;;;;;;;;6228458;28;20107;-63
2022/02/03 22:18:53;;;;;;;14.73;6.55;;;;;;;;;;6228052;28;20097;-63
2022/02/03 22:22:06;;;;;;;11.73;6.28;;;;;;;;;;6225013;28;20123;-63
2022/02/03 22:25:31;;;;;;;13.35;6.13;;;;;;;;;;6225767;28;20053;-62
2022/02/03 22:29:03;;;;;;;11.85;6.25;;;;;;;;;;6222027;28;20052;-63
2022/02/03 22:38:55;;;;;;;14.02;6.65;;;;;;;;;;6226309;28;20109;-62
2022/02/03 22:45:17;;;;;;;14.10;6.00;;;;;;;;;;6221968;28;20358;-63
2022/02/03 22:48:25;;;;;;;13.75;5.75;;;;;;;;;;6223709;28;20246;-63
2022/02/03 22:51:28;;;;;;;13.43;5.47;;;;;;;;;;6222377;28;20052;-63
2022/02/03 22:54:30;;;;;;;13.15;5.72;;;;;;;;;;6226213;28;20050;-63
2022/02/03 22:57:32;;;;;;;13.55;5.10;;;;;;;;;;6221453;28;20592;-63
2022/02/03 23:00:45;;;;;;;12.38;5.93;;;;;;;;;;6225397;28;20182;-63
2022/02/03 23:03:47;;;;;;;10.13;5.18;;;;;;;;;;6223492;28;20050;-63
2022/02/03 23:06:54;;;;;;;11.90;5.47;;;;;;;;;;6221298;28;20469;-63
2022/02/03 23:10:01;;;;;;;14.48;5.18;;;;;;;;;;6219014;28;20554;-63
2022/02/03 23:13:21;;;;;;;11.23;5.15;;;;;;;;;;6222612;28;20148;-62
2022/02/03 23:16:39;;;;;;;10.63;5.05;;;;;;;;;;6222494;28;20124;-63
2022/02/03 23:20:00;;;;;;;10.98;4.40;;;;;;;;;;6217704;28;20038;-63
2022/02/03 23:23:01;;;;;;;15.70;5.03;;;;;;;;;;6215477;28;20525;-63
2022/02/03 23:26:06;;;;;;;14.57;4.97;;;;;;;;;;6218242;28;20125;-63
2022/02/03 23:29:10;;;;;;;11.45;4.50;;;;;;;;;;6216596;28;20047;-63
2022/02/03 23:32:13;;;;;;;12.57;5.50;;;;;;;;;;6217849;28;20180;-64
2022/02/03 23:35:18;;;;;;;11.95;4.82;;;;;;;;;;6220030;28;20042;-64
2022/02/03 23:38:30;;;;;;;13.95;5.00;;;;;;;;;;6215783;28;20073;-63
2022/02/03 23:42:31;;;;;;;12.25;5.32;;;;;;;;;;6217098;28;20054;-63
